首页
METAR-TAF:

METAR-TAF

机场 :

肯尼思·卡翁达国际机场

路沙卡, 赞比亚

纬度: 15-19-51S, 经度: 028-27-09E, 海拔: 1152米

METAR: 丢失

时间: 13:26 (11:26 UTC)

预报

该预报发布于13小时和26分钟前的22:00 UTC
预报有效从20日的 00点(UTC)到 21日的 06点(UTC)
风速5节,风向东南
能见度10公里或以上
1500米以下无云,无积雨云
成为
从 20日的 04点(UTC)到 20日的 06点(UTC)
风速5节,风向
成为
从 20日的 07点(UTC)到 20日的 11点(UTC)
风速10节,风向

TAF: FLKK 192200Z 2000/2106 14005KT CAVOK BECMG 2004/2006 09005KT BECMG 2007/2011 09010KT

超过4000个机场的气象观测和天气预报(METAR&TAF报告)。

可查询的气象台以黄色和红色小点在地图上表示。

将鼠标移到小点上方,可查看气象台名称。

然后点击查看天气观测和预报。

如需切换地图:点击带黑十字的绿色按钮放大地图;点击带横线的绿色按钮缩小地图;或者点击绿色箭头查看邻近地区的地图。


METAR-TAF: